sensor_id;sensor_type;location;lat;lon;timestamp;temperature;humidity
28520;DHT22;15732;48.534;20.382;2024-02-23T00:01:33;8.40;99.90
28520;DHT22;15732;48.534;20.382;2024-02-23T00:04:00;8.40;99.90
28520;DHT22;15732;48.534;20.382;2024-02-23T00:06:28;8.40;99.90
28520;DHT22;15732;48.534;20.382;2024-02-23T00:08:55;8.40;99.90
28520;DHT22;15732;48.534;20.382;2024-02-23T00:11:23;8.40;99.90
28520;DHT22;15732;48.534;20.382;2024-02-23T00:13:49;8.40;99.90
28520;DHT22;15732;48.534;20.382;2024-02-23T00:16:16;8.40;99.90
28520;DHT22;15732;48.534;20.382;2024-02-23T00:18:42;8.40;99.90
28520;DHT22;15732;48.534;20.382;2024-02-23T00:21:09;8.40;99.90
28520;DHT22;15732;48.534;20.382;2024-02-23T00:23:36;8.40;99.90
28520;DHT22;15732;48.534;20.382;2024-02-23T00:26:02;8.40;99.90
28520;DHT22;15732;48.534;20.382;2024-02-23T00:28:29;8.40;99.90
28520;DHT22;15732;48.534;20.382;2024-02-23T00:30:55;8.40;99.90
28520;DHT22;15732;48.534;20.382;2024-02-23T00:33:22;8.40;99.90
28520;DHT22;15732;48.534;20.382;2024-02-23T00:35:49;8.40;99.90
28520;DHT22;15732;48.534;20.382;2024-02-23T00:38:16;8.40;99.90
28520;DHT22;15732;48.534;20.382;2024-02-23T00:40:43;8.40;99.90
28520;DHT22;15732;48.534;20.382;2024-02-23T00:43:10;8.30;99.90
28520;DHT22;15732;48.534;20.382;2024-02-23T00:45:36;8.40;99.90
28520;DHT22;15732;48.534;20.382;2024-02-23T00:48:03;8.40;99.90
28520;DHT22;15732;48.534;20.382;2024-02-23T00:50:30;8.30;99.90
28520;DHT22;15732;48.534;20.382;2024-02-23T00:52:57;8.30;99.90
28520;DHT22;15732;48.534;20.382;2024-02-23T00:55:24;8.30;99.90
28520;DHT22;15732;48.534;20.382;2024-02-23T00:57:52;8.30;99.90
28520;DHT22;15732;48.534;20.382;2024-02-23T01:00:19;8.30;99.90
28520;DHT22;15732;48.534;20.382;2024-02-23T01:02:46;8.30;99.90
28520;DHT22;15732;48.534;20.382;2024-02-23T01:05:12;8.30;99.90
28520;DHT22;15732;48.534;20.382;2024-02-23T01:07:39;8.30;99.90
28520;DHT22;15732;48.534;20.382;2024-02-23T01:10:06;8.30;99.90
28520;DHT22;15732;48.534;20.382;2024-02-23T01:12:33;8.40;99.90
28520;DHT22;15732;48.534;20.382;2024-02-23T01:15:00;8.40;99.90
28520;DHT22;15732;48.534;20.382;2024-02-23T01:17:26;8.40;99.90
28520;DHT22;15732;48.534;20.382;2024-02-23T01:19:53;8.40;99.90
28520;DHT22;15732;48.534;20.382;2024-02-23T01:22:20;8.30;99.90
28520;DHT22;15732;48.534;20.382;2024-02-23T01:24:50;8.30;99.90
28520;DHT22;15732;48.534;20.382;2024-02-23T01:27:17;8.30;99.90
28520;DHT22;15732;48.534;20.382;2024-02-23T01:29:44;8.30;99.90
28520;DHT22;15732;48.534;20.382;2024-02-23T01:32:11;8.30;99.90
28520;DHT22;15732;48.534;20.382;2024-02-23T01:34:37;8.30;99.90
28520;DHT22;15732;48.534;20.382;2024-02-23T01:37:04;8.30;99.90
28520;DHT22;15732;48.534;20.382;2024-02-23T01:39:31;8.30;99.90
28520;DHT22;15732;48.534;20.382;2024-02-23T01:42:01;8.20;99.90
28520;DHT22;15732;48.534;20.382;2024-02-23T01:44:28;8.20;99.90
28520;DHT22;15732;48.534;20.382;2024-02-23T01:46:55;8.20;99.90
28520;DHT22;15732;48.534;20.382;2024-02-23T01:49:22;8.10;99.90
28520;DHT22;15732;48.534;20.382;2024-02-23T01:51:56;8.10;99.90
28520;DHT22;15732;48.534;20.382;2024-02-23T01:54:23;8.20;99.90
28520;DHT22;15732;48.534;20.382;2024-02-23T01:56:51;8.20;99.90
28520;DHT22;15732;48.534;20.382;2024-02-23T01:59:18;8.20;99.90
28520;DHT22;15732;48.534;20.382;2024-02-23T02:01:45;8.20;99.90
28520;DHT22;15732;48.534;20.382;2024-02-23T02:04:11;8.20;99.90
28520;DHT22;15732;48.534;20.382;2024-02-23T02:06:38;8.30;99.90
28520;DHT22;15732;48.534;20.382;2024-02-23T02:09:05;8.20;99.90
28520;DHT22;15732;48.534;20.382;2024-02-23T02:11:44;8.20;99.90
28520;DHT22;15732;48.534;20.382;2024-02-23T02:14:11;8.20;99.90
28520;DHT22;15732;48.534;20.382;2024-02-23T02:16:41;8.20;99.90
28520;DHT22;15732;48.534;20.382;2024-02-23T02:19:10;8.20;99.90
28520;DHT22;15732;48.534;20.382;2024-02-23T02:21:37;8.20;99.90
28520;DHT22;15732;48.534;20.382;2024-02-23T02:24:04;8.20;99.90
28520;DHT22;15732;48.534;20.382;2024-02-23T02:26:30;8.20;99.90
28520;DHT22;15732;48.534;20.382;2024-02-23T02:28:57;8.10;99.90
28520;DHT22;15732;48.534;20.382;2024-02-23T02:31:24;8.10;99.90
28520;DHT22;15732;48.534;20.382;2024-02-23T02:33:50;8.10;99.90
28520;DHT22;15732;48.534;20.382;2024-02-23T02:36:17;8.10;99.90
28520;DHT22;15732;48.534;20.382;2024-02-23T02:38:43;8.10;99.90
28520;DHT22;15732;48.534;20.382;2024-02-23T02:41:10;8.00;99.90
28520;DHT22;15732;48.534;20.382;2024-02-23T02:43:37;8.00;99.90
28520;DHT22;15732;48.534;20.382;2024-02-23T02:46:03;8.10;99.90
28520;DHT22;15732;48.534;20.382;2024-02-23T02:48:30;8.10;99.90
28520;DHT22;15732;48.534;20.382;2024-02-23T02:50:57;8.10;99.90
28520;DHT22;15732;48.534;20.382;2024-02-23T02:53:23;8.20;99.90
28520;DHT22;15732;48.534;20.382;2024-02-23T02:55:50;8.20;99.90
28520;DHT22;15732;48.534;20.382;2024-02-23T02:58:17;8.20;99.90
28520;DHT22;15732;48.534;20.382;2024-02-23T03:00:44;8.20;99.90
28520;DHT22;15732;48.534;20.382;2024-02-23T03:03:14;8.20;99.90
28520;DHT22;15732;48.534;20.382;2024-02-23T03:05:40;8.20;99.90
28520;DHT22;15732;48.534;20.382;2024-02-23T03:08:07;8.20;99.90
28520;DHT22;15732;48.534;20.382;2024-02-23T03:10:34;8.20;99.90
28520;DHT22;15732;48.534;20.382;2024-02-23T03:13:00;8.20;99.90
28520;DHT22;15732;48.534;20.382;2024-02-23T03:15:27;8.20;99.90
28520;DHT22;15732;48.534;20.382;2024-02-23T03:17:55;8.20;99.90
28520;DHT22;15732;48.534;20.382;2024-02-23T03:20:21;8.20;99.90
28520;DHT22;15732;48.534;20.382;2024-02-23T03:22:48;8.20;99.90
28520;DHT22;15732;48.534;20.382;2024-02-23T03:25:15;8.20;99.90
28520;DHT22;15732;48.534;20.382;2024-02-23T03:27:42;8.20;99.90
28520;DHT22;15732;48.534;20.382;2024-02-23T03:30:09;8.20;99.90
28520;DHT22;15732;48.534;20.382;2024-02-23T03:32:36;8.20;99.90
28520;DHT22;15732;48.534;20.382;2024-02-23T03:35:05;8.20;99.90
28520;DHT22;15732;48.534;20.382;2024-02-23T03:37:31;8.20;99.90
28520;DHT22;15732;48.534;20.382;2024-02-23T03:39:58;8.20;99.90
28520;DHT22;15732;48.534;20.382;2024-02-23T03:42:25;8.20;99.90
28520;DHT22;15732;48.534;20.382;2024-02-23T03:44:52;8.10;99.90
28520;DHT22;15732;48.534;20.382;2024-02-23T03:47:19;8.10;99.90
28520;DHT22;15732;48.534;20.382;2024-02-23T03:49:46;8.10;99.90
28520;DHT22;15732;48.534;20.382;2024-02-23T03:52:12;8.10;99.90
28520;DHT22;15732;48.534;20.382;2024-02-23T03:54:43;8.10;99.90
28520;DHT22;15732;48.534;20.382;2024-02-23T03:57:10;8.10;99.90
28520;DHT22;15732;48.534;20.382;2024-02-23T03:59:36;8.10;99.90
28520;DHT22;15732;48.534;20.382;2024-02-23T04:02:04;8.10;99.90
28520;DHT22;15732;48.534;20.382;2024-02-23T04:04:34;8.10;99.90
28520;DHT22;15732;48.534;20.382;2024-02-23T04:07:01;8.00;99.90
28520;DHT22;15732;48.534;20.382;2024-02-23T04:09:31;8.00;99.90
28520;DHT22;15732;48.534;20.382;2024-02-23T04:11:58;8.00;99.90
28520;DHT22;15732;48.534;20.382;2024-02-23T04:14:25;8.00;99.90
28520;DHT22;15732;48.534;20.382;2024-02-23T04:16:55;8.00;99.90
28520;DHT22;15732;48.534;20.382;2024-02-23T04:19:22;8.00;99.90
28520;DHT22;15732;48.534;20.382;2024-02-23T04:21:49;8.00;99.90
28520;DHT22;15732;48.534;20.382;2024-02-23T04:24:16;8.10;99.90
28520;DHT22;15732;48.534;20.382;2024-02-23T04:26:42;8.10;99.90
28520;DHT22;15732;48.534;20.382;2024-02-23T04:29:09;8.00;99.90
28520;DHT22;15732;48.534;20.382;2024-02-23T04:31:36;8.10;99.90
28520;DHT22;15732;48.534;20.382;2024-02-23T04:34:07;8.00;99.90
28520;DHT22;15732;48.534;20.382;2024-02-23T04:36:34;8.00;99.90
28520;DHT22;15732;48.534;20.382;2024-02-23T04:39:00;8.00;99.90
28520;DHT22;15732;48.534;20.382;2024-02-23T04:41:27;8.00;99.90
28520;DHT22;15732;48.534;20.382;2024-02-23T04:43:57;8.00;99.90
28520;DHT22;15732;48.534;20.382;2024-02-23T04:46:26;8.00;99.90
28520;DHT22;15732;48.534;20.382;2024-02-23T04:48:52;8.00;99.90
28520;DHT22;15732;48.534;20.382;2024-02-23T04:51:19;8.00;99.90
28520;DHT22;15732;48.534;20.382;2024-02-23T04:53:46;8.10;99.90
28520;DHT22;15732;48.534;20.382;2024-02-23T04:56:12;8.00;99.90
28520;DHT22;15732;48.534;20.382;2024-02-23T04:58:39;8.10;99.90
28520;DHT22;15732;48.534;20.382;2024-02-23T05:01:07;8.10;99.90
28520;DHT22;15732;48.534;20.382;2024-02-23T05:03:34;8.10;99.90
28520;DHT22;15732;48.534;20.382;2024-02-23T05:06:04;8.00;99.90
28520;DHT22;15732;48.534;20.382;2024-02-23T05:08:31;8.10;99.90
28520;DHT22;15732;48.534;20.382;2024-02-23T05:10:57;8.10;99.90
28520;DHT22;15732;48.534;20.382;2024-02-23T05:13:24;8.10;99.90
28520;DHT22;15732;48.534;20.382;2024-02-23T05:15:51;8.10;99.90
28520;DHT22;15732;48.534;20.382;2024-02-23T05:18:17;8.10;99.90
28520;DHT22;15732;48.534;20.382;2024-02-23T05:20:44;8.10;99.90
28520;DHT22;15732;48.534;20.382;2024-02-23T05:23:11;8.00;99.90
28520;DHT22;15732;48.534;20.382;2024-02-23T05:25:44;8.00;99.90
28520;DHT22;15732;48.534;20.382;2024-02-23T05:28:10;8.10;99.90
28520;DHT22;15732;48.534;20.382;2024-02-23T05:30:37;8.10;99.90
28520;DHT22;15732;48.534;20.382;2024-02-23T05:33:04;8.10;99.90
28520;DHT22;15732;48.534;20.382;2024-02-23T05:35:34;8.10;99.90
28520;DHT22;15732;48.534;20.382;2024-02-23T05:38:01;8.10;99.90
28520;DHT22;15732;48.534;20.382;2024-02-23T05:40:28;8.10;99.90
28520;DHT22;15732;48.534;20.382;2024-02-23T05:42:54;8.00;99.90
28520;DHT22;15732;48.534;20.382;2024-02-23T05:45:21;8.00;99.90
28520;DHT22;15732;48.534;20.382;2024-02-23T05:47:52;8.00;99.90
28520;DHT22;15732;48.534;20.382;2024-02-23T05:50:18;8.00;99.90
28520;DHT22;15732;48.534;20.382;2024-02-23T05:52:45;7.90;99.90
28520;DHT22;15732;48.534;20.382;2024-02-23T05:55:12;7.90;99.90
28520;DHT22;15732;48.534;20.382;2024-02-23T05:57:39;7.90;99.90
28520;DHT22;15732;48.534;20.382;2024-02-23T06:00:06;7.90;99.90
28520;DHT22;15732;48.534;20.382;2024-02-23T06:02:34;7.90;99.90
28520;DHT22;15732;48.534;20.382;2024-02-23T06:05:00;8.00;99.90
28520;DHT22;15732;48.534;20.382;2024-02-23T06:07:27;8.00;99.90
28520;DHT22;15732;48.534;20.382;2024-02-23T06:09:57;8.00;99.90
28520;DHT22;15732;48.534;20.382;2024-02-23T06:12:27;8.00;99.90
28520;DHT22;15732;48.534;20.382;2024-02-23T06:14:57;8.00;99.90
28520;DHT22;15732;48.534;20.382;2024-02-23T06:17:24;7.90;99.90
28520;DHT22;15732;48.534;20.382;2024-02-23T06:19:51;8.00;99.90
28520;DHT22;15732;48.534;20.382;2024-02-23T06:22:19;7.90;99.90
28520;DHT22;15732;48.534;20.382;2024-02-23T06:24:49;8.00;99.90
28520;DHT22;15732;48.534;20.382;2024-02-23T06:27:16;8.00;99.90
28520;DHT22;15732;48.534;20.382;2024-02-23T06:29:43;8.10;99.90
28520;DHT22;15732;48.534;20.382;2024-02-23T06:32:09;8.10;99.90
28520;DHT22;15732;48.534;20.382;2024-02-23T06:34:36;8.10;99.90
28520;DHT22;15732;48.534;20.382;2024-02-23T06:37:03;8.10;99.90
28520;DHT22;15732;48.534;20.382;2024-02-23T06:39:30;8.10;99.90
28520;DHT22;15732;48.534;20.382;2024-02-23T06:42:00;8.20;99.90
28520;DHT22;15732;48.534;20.382;2024-02-23T06:44:30;8.20;99.90
28520;DHT22;15732;48.534;20.382;2024-02-23T06:46:56;8.20;99.90
28520;DHT22;15732;48.534;20.382;2024-02-23T06:49:23;8.20;99.90
28520;DHT22;15732;48.534;20.382;2024-02-23T06:51:50;8.30;99.90
28520;DHT22;15732;48.534;20.382;2024-02-23T06:54:17;8.30;99.90
28520;DHT22;15732;48.534;20.382;2024-02-23T06:56:47;8.30;99.90
28520;DHT22;15732;48.534;20.382;2024-02-23T06:59:14;8.30;99.90
28520;DHT22;15732;48.534;20.382;2024-02-23T07:01:50;8.30;99.90
28520;DHT22;15732;48.534;20.382;2024-02-23T07:04:17;8.30;99.90
28520;DHT22;15732;48.534;20.382;2024-02-23T07:06:43;8.30;99.90
28520;DHT22;15732;48.534;20.382;2024-02-23T07:09:10;8.30;99.90
28520;DHT22;15732;48.534;20.382;2024-02-23T07:11:38;8.30;99.90
28520;DHT22;15732;48.534;20.382;2024-02-23T07:14:04;8.30;99.90
28520;DHT22;15732;48.534;20.382;2024-02-23T07:16:31;8.30;99.90
28520;DHT22;15732;48.534;20.382;2024-02-23T07:19:02;8.30;99.90
28520;DHT22;15732;48.534;20.382;2024-02-23T07:21:28;8.30;99.90
28520;DHT22;15732;48.534;20.382;2024-02-23T07:23:55;8.40;99.90
28520;DHT22;15732;48.534;20.382;2024-02-23T07:26:22;8.40;99.90
28520;DHT22;15732;48.534;20.382;2024-02-23T07:28:53;8.40;99.90
28520;DHT22;15732;48.534;20.382;2024-02-23T07:31:20;8.50;99.90
28520;DHT22;15732;48.534;20.382;2024-02-23T07:33:46;8.50;99.90
28520;DHT22;15732;48.534;20.382;2024-02-23T07:36:17;8.50;99.90
28520;DHT22;15732;48.534;20.382;2024-02-23T07:38:43;8.50;99.90
28520;DHT22;15732;48.534;20.382;2024-02-23T07:41:11;8.50;99.90
28520;DHT22;15732;48.534;20.382;2024-02-23T07:43:39;8.50;99.90
28520;DHT22;15732;48.534;20.382;2024-02-23T07:46:06;8.50;99.90
28520;DHT22;15732;48.534;20.382;2024-02-23T07:48:35;8.50;99.90
28520;DHT22;15732;48.534;20.382;2024-02-23T07:51:02;8.50;99.90
28520;DHT22;15732;48.534;20.382;2024-02-23T07:53:29;8.50;99.90
28520;DHT22;15732;48.534;20.382;2024-02-23T07:55:55;8.60;99.90
28520;DHT22;15732;48.534;20.382;2024-02-23T07:58:28;8.60;99.90
28520;DHT22;15732;48.534;20.382;2024-02-23T08:00:54;8.60;99.90
28520;DHT22;15732;48.534;20.382;2024-02-23T08:03:21;8.60;99.90
28520;DHT22;15732;48.534;20.382;2024-02-23T08:05:47;8.70;99.90
28520;DHT22;15732;48.534;20.382;2024-02-23T08:08:14;8.60;99.90
28520;DHT22;15732;48.534;20.382;2024-02-23T08:10:41;8.70;99.90
28520;DHT22;15732;48.534;20.382;2024-02-23T08:13:07;8.70;99.90
28520;DHT22;15732;48.534;20.382;2024-02-23T08:15:36;8.70;99.90
28520;DHT22;15732;48.534;20.382;2024-02-23T08:18:03;8.70;99.90
28520;DHT22;15732;48.534;20.382;2024-02-23T08:20:30;8.70;99.90
28520;DHT22;15732;48.534;20.382;2024-02-23T08:22:56;8.70;99.90
28520;DHT22;15732;48.534;20.382;2024-02-23T08:25:23;8.70;99.90
28520;DHT22;15732;48.534;20.382;2024-02-23T08:27:49;8.70;99.90
28520;DHT22;15732;48.534;20.382;2024-02-23T08:30:20;8.80;99.90
28520;DHT22;15732;48.534;20.382;2024-02-23T08:32:47;8.80;99.90
28520;DHT22;15732;48.534;20.382;2024-02-23T08:35:18;8.80;99.90
28520;DHT22;15732;48.534;20.382;2024-02-23T08:37:45;8.90;99.90
28520;DHT22;15732;48.534;20.382;2024-02-23T08:40:12;8.90;99.90
28520;DHT22;15732;48.534;20.382;2024-02-23T08:42:42;8.90;99.90
28520;DHT22;15732;48.534;20.382;2024-02-23T08:45:09;8.90;99.90
28520;DHT22;15732;48.534;20.382;2024-02-23T08:47:38;9.00;99.90
28520;DHT22;15732;48.534;20.382;2024-02-23T08:50:05;9.00;99.90
28520;DHT22;15732;48.534;20.382;2024-02-23T08:52:33;9.00;99.90
28520;DHT22;15732;48.534;20.382;2024-02-23T08:55:00;9.00;99.90
28520;DHT22;15732;48.534;20.382;2024-02-23T08:57:27;9.00;99.90
28520;DHT22;15732;48.534;20.382;2024-02-23T08:59:53;9.10;99.90
28520;DHT22;15732;48.534;20.382;2024-02-23T09:02:26;9.10;99.90
28520;DHT22;15732;48.534;20.382;2024-02-23T09:05:09;9.10;99.90
28520;DHT22;15732;48.534;20.382;2024-02-23T09:07:36;9.10;99.90
28520;DHT22;15732;48.534;20.382;2024-02-23T09:10:07;9.20;99.90
28520;DHT22;15732;48.534;20.382;2024-02-23T09:12:34;9.20;99.90
28520;DHT22;15732;48.534;20.382;2024-02-23T09:15:01;9.20;99.90
28520;DHT22;15732;48.534;20.382;2024-02-23T09:17:29;9.20;99.90
28520;DHT22;15732;48.534;20.382;2024-02-23T09:19:55;9.30;99.90
28520;DHT22;15732;48.534;20.382;2024-02-23T09:22:22;9.30;99.90
28520;DHT22;15732;48.534;20.382;2024-02-23T09:24:49;9.30;99.90
28520;DHT22;15732;48.534;20.382;2024-02-23T09:27:20;9.30;99.90
28520;DHT22;15732;48.534;20.382;2024-02-23T09:29:47;9.30;99.90
28520;DHT22;15732;48.534;20.382;2024-02-23T09:32:14;9.30;99.90
28520;DHT22;15732;48.534;20.382;2024-02-23T09:34:41;9.30;99.90
28520;DHT22;15732;48.534;20.382;2024-02-23T09:37:08;9.40;99.90
28520;DHT22;15732;48.534;20.382;2024-02-23T09:39:38;9.40;99.90
28520;DHT22;15732;48.534;20.382;2024-02-23T09:42:09;9.40;99.90
28520;DHT22;15732;48.534;20.382;2024-02-23T09:45:01;9.50;99.90
28520;DHT22;15732;48.534;20.382;2024-02-23T09:47:38;9.60;99.90
28520;DHT22;15732;48.534;20.382;2024-02-23T09:50:05;9.60;99.90
28520;DHT22;15732;48.534;20.382;2024-02-23T09:52:32;9.60;99.90
28520;DHT22;15732;48.534;20.382;2024-02-23T09:54:59;9.60;99.90
28520;DHT22;15732;48.534;20.382;2024-02-23T09:57:26;9.70;99.90
28520;DHT22;15732;48.534;20.382;2024-02-23T09:59:53;9.70;99.90
28520;DHT22;15732;48.534;20.382;2024-02-23T10:02:21;9.70;99.90
28520;DHT22;15732;48.534;20.382;2024-02-23T10:04:48;9.70;99.90
28520;DHT22;15732;48.534;20.382;2024-02-23T10:07:16;9.70;99.90
28520;DHT22;15732;48.534;20.382;2024-02-23T10:09:42;9.80;99.90
28520;DHT22;15732;48.534;20.382;2024-02-23T10:12:09;9.70;99.90
28520;DHT22;15732;48.534;20.382;2024-02-23T10:14:35;9.70;99.90
28520;DHT22;15732;48.534;20.382;2024-02-23T10:17:02;9.80;99.90
28520;DHT22;15732;48.534;20.382;2024-02-23T10:19:29;9.70;99.90
28520;DHT22;15732;48.534;20.382;2024-02-23T10:21:56;9.70;99.90
28520;DHT22;15732;48.534;20.382;2024-02-23T10:24:24;9.70;99.90
28520;DHT22;15732;48.534;20.382;2024-02-23T10:26:54;9.70;99.90
28520;DHT22;15732;48.534;20.382;2024-02-23T10:29:21;9.70;99.90
28520;DHT22;15732;48.534;20.382;2024-02-23T10:31:48;9.70;99.90
28520;DHT22;15732;48.534;20.382;2024-02-23T10:34:17;9.70;99.90
28520;DHT22;15732;48.534;20.382;2024-02-23T10:36:44;9.70;99.90
28520;DHT22;15732;48.534;20.382;2024-02-23T10:39:15;9.70;99.90
28520;DHT22;15732;48.534;20.382;2024-02-23T10:41:43;9.60;99.90
28520;DHT22;15732;48.534;20.382;2024-02-23T10:44:13;9.70;99.90
28520;DHT22;15732;48.534;20.382;2024-02-23T10:46:41;9.60;99.90
28520;DHT22;15732;48.534;20.382;2024-02-23T10:49:08;9.60;99.90
28520;DHT22;15732;48.534;20.382;2024-02-23T10:51:35;9.70;99.90
28520;DHT22;15732;48.534;20.382;2024-02-23T10:54:06;9.60;99.90
28520;DHT22;15732;48.534;20.382;2024-02-23T10:56:33;9.60;99.90
28520;DHT22;15732;48.534;20.382;2024-02-23T10:59:00;9.60;99.90
28520;DHT22;15732;48.534;20.382;2024-02-23T11:01:27;9.60;99.90
28520;DHT22;15732;48.534;20.382;2024-02-23T11:03:53;9.60;99.90
28520;DHT22;15732;48.534;20.382;2024-02-23T11:06:23;9.60;99.90
28520;DHT22;15732;48.534;20.382;2024-02-23T11:09:06;9.60;99.90
28520;DHT22;15732;48.534;20.382;2024-02-23T11:11:34;9.60;99.90
28520;DHT22;15732;48.534;20.382;2024-02-23T11:14:06;9.60;99.90
28520;DHT22;15732;48.534;20.382;2024-02-23T11:16:33;9.60;99.90
28520;DHT22;15732;48.534;20.382;2024-02-23T11:19:06;9.70;99.90
28520;DHT22;15732;48.534;20.382;2024-02-23T11:21:35;9.70;99.90
28520;DHT22;15732;48.534;20.382;2024-02-23T11:24:03;9.70;99.90
28520;DHT22;15732;48.534;20.382;2024-02-23T11:26:36;9.70;99.90
28520;DHT22;15732;48.534;20.382;2024-02-23T11:29:09;9.70;99.90
28520;DHT22;15732;48.534;20.382;2024-02-23T11:31:36;9.70;99.90
28520;DHT22;15732;48.534;20.382;2024-02-23T11:34:10;9.70;99.90
28520;DHT22;15732;48.534;20.382;2024-02-23T11:36:38;9.70;99.90
28520;DHT22;15732;48.534;20.382;2024-02-23T11:39:04;9.70;99.90
28520;DHT22;15732;48.534;20.382;2024-02-23T11:41:31;9.70;99.90
28520;DHT22;15732;48.534;20.382;2024-02-23T11:43:58;9.70;99.90
28520;DHT22;15732;48.534;20.382;2024-02-23T11:46:25;9.70;99.90
28520;DHT22;15732;48.534;20.382;2024-02-23T11:48:51;9.70;99.90
28520;DHT22;15732;48.534;20.382;2024-02-23T11:51:24;9.70;99.90
28520;DHT22;15732;48.534;20.382;2024-02-23T11:53:53;9.70;99.90
28520;DHT22;15732;48.534;20.382;2024-02-23T11:56:23;9.70;99.90
28520;DHT22;15732;48.534;20.382;2024-02-23T11:58:50;9.70;99.90
28520;DHT22;15732;48.534;20.382;2024-02-23T12:01:16;9.70;99.90
28520;DHT22;15732;48.534;20.382;2024-02-23T12:03:43;9.80;99.90
28520;DHT22;15732;48.534;20.382;2024-02-23T12:06:10;9.80;99.90
28520;DHT22;15732;48.534;20.382;2024-02-23T12:08:37;9.80;99.90
28520;DHT22;15732;48.534;20.382;2024-02-23T12:11:04;9.80;99.90
28520;DHT22;15732;48.534;20.382;2024-02-23T12:13:31;9.70;99.90
28520;DHT22;15732;48.534;20.382;2024-02-23T12:15:58;9.80;99.90
28520;DHT22;15732;48.534;20.382;2024-02-23T12:18:24;9.80;99.90
28520;DHT22;15732;48.534;20.382;2024-02-23T12:20:59;9.80;99.90
28520;DHT22;15732;48.534;20.382;2024-02-23T12:23:26;9.80;99.90
28520;DHT22;15732;48.534;20.382;2024-02-23T12:25:53;9.80;99.90
28520;DHT22;15732;48.534;20.382;2024-02-23T12:28:20;9.80;99.90
28520;DHT22;15732;48.534;20.382;2024-02-23T12:30:57;9.80;99.90
28520;DHT22;15732;48.534;20.382;2024-02-23T12:33:23;9.80;99.90
28520;DHT22;15732;48.534;20.382;2024-02-23T12:35:50;9.80;99.90
28520;DHT22;15732;48.534;20.382;2024-02-23T12:38:16;9.80;99.90
28520;DHT22;15732;48.534;20.382;2024-02-23T12:40:43;9.80;99.90
28520;DHT22;15732;48.534;20.382;2024-02-23T12:43:10;9.80;99.90
28520;DHT22;15732;48.534;20.382;2024-02-23T12:45:36;9.80;99.90
28520;DHT22;15732;48.534;20.382;2024-02-23T12:48:03;9.80;99.90
28520;DHT22;15732;48.534;20.382;2024-02-23T12:50:30;9.90;99.90
28520;DHT22;15732;48.534;20.382;2024-02-23T12:52:57;9.80;99.90
28520;DHT22;15732;48.534;20.382;2024-02-23T12:55:24;9.80;99.90
28520;DHT22;15732;48.534;20.382;2024-02-23T12:57:51;9.90;99.90
28520;DHT22;15732;48.534;20.382;2024-02-23T13:00:21;9.90;99.90
28520;DHT22;15732;48.534;20.382;2024-02-23T13:02:48;9.90;99.90
28520;DHT22;15732;48.534;20.382;2024-02-23T13:05:15;9.90;99.90
28520;DHT22;15732;48.534;20.382;2024-02-23T13:07:42;9.90;99.90
28520;DHT22;15732;48.534;20.382;2024-02-23T13:10:09;9.90;99.90
28520;DHT22;15732;48.534;20.382;2024-02-23T13:12:36;10.00;99.90
28520;DHT22;15732;48.534;20.382;2024-02-23T13:15:03;10.00;99.90
28520;DHT22;15732;48.534;20.382;2024-02-23T13:17:30;10.00;99.90
28520;DHT22;15732;48.534;20.382;2024-02-23T13:19:57;10.10;99.90
28520;DHT22;15732;48.534;20.382;2024-02-23T13:22:23;10.00;99.90
28520;DHT22;15732;48.534;20.382;2024-02-23T13:24:50;10.00;99.90
28520;DHT22;15732;48.534;20.382;2024-02-23T13:27:17;10.00;99.90
28520;DHT22;15732;48.534;20.382;2024-02-23T13:29:43;10.00;99.90
28520;DHT22;15732;48.534;20.382;2024-02-23T13:32:14;10.00;99.90
28520;DHT22;15732;48.534;20.382;2024-02-23T13:34:41;10.00;99.90
28520;DHT22;15732;48.534;20.382;2024-02-23T13:37:07;10.00;99.90
28520;DHT22;15732;48.534;20.382;2024-02-23T13:39:38;10.00;99.90
28520;DHT22;15732;48.534;20.382;2024-02-23T13:42:04;10.00;99.90
28520;DHT22;15732;48.534;20.382;2024-02-23T13:44:34;10.00;99.90
28520;DHT22;15732;48.534;20.382;2024-02-23T13:47:00;10.00;99.90
28520;DHT22;15732;48.534;20.382;2024-02-23T13:49:27;10.00;99.90
28520;DHT22;15732;48.534;20.382;2024-02-23T13:51:58;10.00;99.90
28520;DHT22;15732;48.534;20.382;2024-02-23T13:54:24;10.00;99.90
28520;DHT22;15732;48.534;20.382;2024-02-23T13:56:51;10.00;99.90
28520;DHT22;15732;48.534;20.382;2024-02-23T13:59:18;10.00;99.90
28520;DHT22;15732;48.534;20.382;2024-02-23T14:01:49;9.90;99.90
28520;DHT22;15732;48.534;20.382;2024-02-23T14:04:16;9.90;99.90
28520;DHT22;15732;48.534;20.382;2024-02-23T14:06:43;10.00;99.90
28520;DHT22;15732;48.534;20.382;2024-02-23T14:09:10;9.90;99.90
28520;DHT22;15732;48.534;20.382;2024-02-23T14:11:37;9.90;99.90
28520;DHT22;15732;48.534;20.382;2024-02-23T14:14:06;10.00;99.90
28520;DHT22;15732;48.534;20.382;2024-02-23T14:16:33;9.90;99.90
28520;DHT22;15732;48.534;20.382;2024-02-23T14:19:01;10.00;99.90
28520;DHT22;15732;48.534;20.382;2024-02-23T14:21:28;10.00;99.90
28520;DHT22;15732;48.534;20.382;2024-02-23T14:23:54;9.90;99.90
28520;DHT22;15732;48.534;20.382;2024-02-23T14:26:21;10.00;99.90
28520;DHT22;15732;48.534;20.382;2024-02-23T14:28:52;10.00;99.90
28520;DHT22;15732;48.534;20.382;2024-02-23T14:31:18;9.90;99.90
28520;DHT22;15732;48.534;20.382;2024-02-23T14:33:45;9.90;99.90
28520;DHT22;15732;48.534;20.382;2024-02-23T14:36:12;9.90;99.90
28520;DHT22;15732;48.534;20.382;2024-02-23T14:38:39;9.90;99.90
28520;DHT22;15732;48.534;20.382;2024-02-23T14:41:06;9.90;99.90
28520;DHT22;15732;48.534;20.382;2024-02-23T14:43:35;9.90;99.90
28520;DHT22;15732;48.534;20.382;2024-02-23T14:46:02;9.90;99.90
28520;DHT22;15732;48.534;20.382;2024-02-23T14:48:29;9.90;99.90
28520;DHT22;15732;48.534;20.382;2024-02-23T14:50:56;9.90;99.90
28520;DHT22;15732;48.534;20.382;2024-02-23T14:53:23;9.90;99.90
28520;DHT22;15732;48.534;20.382;2024-02-23T14:55:51;9.90;99.90
28520;DHT22;15732;48.534;20.382;2024-02-23T14:58:22;9.90;99.90
28520;DHT22;15732;48.534;20.382;2024-02-23T15:00:49;9.90;99.90
28520;DHT22;15732;48.534;20.382;2024-02-23T15:03:16;9.90;99.90
28520;DHT22;15732;48.534;20.382;2024-02-23T15:05:42;9.90;99.90
28520;DHT22;15732;48.534;20.382;2024-02-23T15:08:09;9.90;99.90
28520;DHT22;15732;48.534;20.382;2024-02-23T15:10:35;9.90;99.90
28520;DHT22;15732;48.534;20.382;2024-02-23T15:13:02;9.90;99.90
28520;DHT22;15732;48.534;20.382;2024-02-23T15:15:29;9.90;99.90
28520;DHT22;15732;48.534;20.382;2024-02-23T15:17:56;9.90;99.90
28520;DHT22;15732;48.534;20.382;2024-02-23T15:20:22;9.90;99.90
28520;DHT22;15732;48.534;20.382;2024-02-23T15:22:49;9.90;99.90
28520;DHT22;15732;48.534;20.382;2024-02-23T15:25:16;9.90;99.90
28520;DHT22;15732;48.534;20.382;2024-02-23T15:27:46;9.90;99.90
28520;DHT22;15732;48.534;20.382;2024-02-23T15:30:17;9.90;99.90
28520;DHT22;15732;48.534;20.382;2024-02-23T15:32:44;9.90;99.90